Roy, Louisiana
Current Conditions -  °F | °C
As of 11:36 AM on Wednesday 26 Nov 2014 (Local Time) from KMNE Reporting Station
Clear Clear  
Wind Chill: 64°   Ceiling: Unl
Heat Index: 64°   Visibility: 10mi
Dew Point: 30°   Wind: 16mph
Humidity: 28%   Direction: 220°SW
Pressure: 30.08"   Gusts: 24mph
Location:  32.2628°N, 93.0795°W
Report Text: KMNE 261736Z AUTO 22014G21KT 10SM CLR 18/M01 A3008 RMK AO2
Loading
Personal Weather Stations






























Interactive Weather Map New forecast layout! Learn more

10-Day Weather Forecast

Advertisements
Track Severe Weather on mobile